createdAt,value
2019-03-29T00:00:13.890Z,478.3
2019-03-29T00:01:16.389Z,478.4
2019-03-29T00:02:19.098Z,478.2
2019-03-29T00:03:21.294Z,478.5
2019-03-29T00:04:23.776Z,478.6
2019-03-29T00:05:26.242Z,478.7
2019-03-29T00:06:28.727Z,478.9
2019-03-29T00:08:37.511Z,479
2019-03-29T00:09:39.716Z,479.1
2019-03-29T00:10:41.638Z,479.3
2019-03-29T00:11:44.139Z,478.7
2019-03-29T00:12:46.637Z,478.8
2019-03-29T00:13:50.477Z,479
2019-03-29T00:14:52.685Z,479.1
2019-03-29T00:15:55.154Z,479.1
2019-03-29T00:16:57.359Z,479
2019-03-29T00:17:59.598Z,479.1
2019-03-29T00:19:03.430Z,479.5
2019-03-29T00:21:10.616Z,479.4
2019-03-29T00:22:13.088Z,479.1
2019-03-29T00:23:15.564Z,479.3
2019-03-29T00:24:17.774Z,479.4
2019-03-29T00:25:19.934Z,479
2019-03-29T00:26:22.126Z,479.1
2019-03-29T00:27:24.620Z,479.2
2019-03-29T00:28:26.544Z,479.3
2019-03-29T00:29:30.047Z,479
2019-03-29T00:30:32.745Z,479.2
2019-03-29T00:31:35.230Z,479
2019-03-29T00:32:37.714Z,479.6
2019-03-29T00:33:40.251Z,479.6
2019-03-29T00:34:43.664Z,479.5
2019-03-29T00:35:46.137Z,480
2019-03-29T00:36:48.420Z,479.7
2019-03-29T00:38:55.879Z,479.8
2019-03-29T00:39:58.377Z,479.9
2019-03-29T00:41:00.963Z,479.5
2019-03-29T00:42:03.435Z,479.5
2019-03-29T00:43:05.627Z,480.2
2019-03-29T00:44:07.545Z,479.9
2019-03-29T00:45:09.751Z,479.8
2019-03-29T00:46:13.384Z,480.3
2019-03-29T00:47:15.848Z,480.3
2019-03-29T00:48:18.323Z,480.1
2019-03-29T00:49:20.792Z,480.5
2019-03-29T00:50:23.260Z,480.7
2019-03-29T00:51:26.814Z,481.6
2019-03-29T00:52:29.313Z,481.1
2019-03-29T00:53:31.776Z,481.3
2019-03-29T00:54:34.255Z,481.7
2019-03-29T00:55:36.744Z,481.8
2019-03-29T00:56:40.537Z,481.5
2019-03-29T00:57:43.044Z,481.7
2019-03-29T00:58:45.246Z,481.8
2019-03-29T00:59:47.716Z,482
2019-03-29T01:00:50.005Z,481.8
2019-03-29T01:01:53.491Z,481.8
2019-03-29T01:02:55.974Z,482.1
2019-03-29T01:03:58.168Z,482.3
2019-03-29T01:05:00.375Z,482.6
2019-03-29T01:06:02.851Z,482.3
2019-03-29T01:07:06.439Z,482.1
2019-03-29T01:09:13.911Z,482.4
2019-03-29T01:10:16.380Z,482.1
2019-03-29T01:11:18.594Z,482.5
2019-03-29T01:12:21.070Z,482.4
2019-03-29T01:13:24.213Z,482.9
2019-03-29T01:14:27.330Z,482.6
2019-03-29T01:15:29.522Z,482.4
2019-03-29T01:16:32.007Z,482.2
2019-03-29T01:17:33.954Z,482.7
2019-03-29T01:18:36.745Z,482.1
2019-03-29T01:19:39.770Z,482.1
2019-03-29T01:20:41.726Z,482.1
2019-03-29T01:21:43.648Z,482.5
2019-03-29T01:22:46.142Z,482.1
2019-03-29T01:23:48.335Z,482.3
2019-03-29T01:24:50.252Z,482.4
2019-03-29T01:25:52.719Z,482.3
2019-03-29T01:26:55.290Z,482.4
2019-03-29T01:27:57.493Z,482.1
2019-03-29T01:28:59.964Z,482.4
2019-03-29T01:30:02.183Z,482.5
2019-03-29T01:31:04.118Z,482.5
2019-03-29T01:32:06.409Z,482.7
2019-03-29T01:33:09.247Z,482.9
2019-03-29T01:34:11.717Z,482.8
2019-03-29T01:35:13.928Z,483.5
2019-03-29T01:36:15.865Z,483.2
2019-03-29T01:37:18.069Z,483.7
2019-03-29T01:39:25.546Z,483.7
2019-03-29T01:40:28.094Z,483.6
2019-03-29T01:41:30.585Z,483.7
2019-03-29T01:42:32.786Z,483.5
2019-03-29T01:43:36.444Z,483.6
2019-03-29T01:44:38.929Z,483.7
2019-03-29T01:45:41.417Z,483.6
2019-03-29T01:46:43.619Z,483.6
2019-03-29T01:47:46.087Z,484.1
2019-03-29T01:48:49.988Z,483.9
2019-03-29T01:49:52.492Z,484.1
2019-03-29T01:50:54.958Z,484
2019-03-29T01:51:57.150Z,484
2019-03-29T01:52:59.361Z,484
2019-03-29T01:54:01.836Z,484.2
2019-03-29T01:55:04.314Z,484.2
2019-03-29T01:56:06.202Z,484
2019-03-29T01:57:08.958Z,484.5
2019-03-29T01:58:11.441Z,484.2
2019-03-29T01:59:13.644Z,484.3
2019-03-29T02:00:15.846Z,484.4
2019-03-29T02:01:18.309Z,484.3
2019-03-29T02:02:21.931Z,484.5
2019-03-29T02:03:24.390Z,484.4
2019-03-29T02:04:26.612Z,484.5
2019-03-29T02:05:29.930Z,484.3
2019-03-29T02:06:32.436Z,484.6
2019-03-29T02:07:34.371Z,484.9
2019-03-29T02:08:39.104Z,484.6
2019-03-29T02:09:41.566Z,484.4
2019-03-29T02:10:44.036Z,484.9
2019-03-29T02:11:46.232Z,484.7
2019-03-29T02:12:48.174Z,484.9
2019-03-29T02:13:51.247Z,484.8
2019-03-29T02:14:54.327Z,484.6
2019-03-29T02:15:56.524Z,484.5
2019-03-29T02:16:58.193Z,485
2019-03-29T02:18:00.678Z,485.3
2019-03-29T02:19:02.970Z,485.2
2019-03-29T02:20:05.448Z,485
2019-03-29T02:21:07.940Z,485.3
2019-03-29T02:22:11.066Z,485.2
2019-03-29T02:23:13.260Z,485.4
2019-03-29T02:24:14.898Z,485.6
2019-03-29T02:25:18.361Z,485.2
2019-03-29T02:26:19.983Z,485.1
2019-03-29T02:27:22.481Z,485.1
2019-03-29T02:28:24.963Z,485
2019-03-29T02:29:27.178Z,485
2019-03-29T02:30:31.901Z,484.8
2019-03-29T02:31:36.340Z,485
2019-03-29T02:32:38.252Z,484.8
2019-03-29T02:33:40.473Z,485.1
2019-03-29T02:35:48.384Z,485
2019-03-29T02:36:50.861Z,485
2019-03-29T02:37:53.345Z,485.3
2019-03-29T02:40:00.679Z,485.3
2019-03-29T02:41:03.182Z,485.6
2019-03-29T02:42:05.820Z,485.3
2019-03-29T02:43:10.513Z,485.5
2019-03-29T02:44:12.976Z,485.7
2019-03-29T02:45:15.464Z,485.3
2019-03-29T02:46:17.945Z,485.5
2019-03-29T02:47:22.129Z,485.2
2019-03-29T02:48:24.602Z,485.7
2019-03-29T02:49:26.828Z,485.6
2019-03-29T02:50:29.297Z,485.7
2019-03-29T02:51:33.706Z,486
2019-03-29T02:52:36.249Z,486.1
2019-03-29T02:53:38.464Z,486
2019-03-29T02:54:40.938Z,486.1
2019-03-29T02:55:43.429Z,485.6
2019-03-29T02:56:45.897Z,486.1
2019-03-29T02:57:48.149Z,486.4
2019-03-29T02:58:50.622Z,485.9
2019-03-29T02:59:53.087Z,485.3
2019-03-29T03:00:55.330Z,485.5
2019-03-29T03:01:57.819Z,485.5
2019-03-29T03:03:00.292Z,485.6
2019-03-29T03:04:02.772Z,485.5
2019-03-29T03:05:05.252Z,485.8
2019-03-29T03:06:07.714Z,485.6
2019-03-29T03:07:10.189Z,485.5
2019-03-29T03:08:12.658Z,485.6
2019-03-29T03:09:16.774Z,485.8
2019-03-29T03:10:18.705Z,485.2
2019-03-29T03:11:21.169Z,485.3
2019-03-29T03:12:23.669Z,485.3
2019-03-29T03:13:26.185Z,485.5
2019-03-29T03:14:28.664Z,485
2019-03-29T03:15:31.169Z,485.1
2019-03-29T03:16:33.334Z,484.8
2019-03-29T03:17:35.797Z,484.8
2019-03-29T03:18:38.351Z,484.8
2019-03-29T03:19:40.577Z,484.4
2019-03-29T03:20:43.071Z,484.7
2019-03-29T03:21:45.584Z,484.5
2019-03-29T03:22:48.065Z,484.9
2019-03-29T03:23:50.554Z,485.1
2019-03-29T03:24:52.608Z,485.1
2019-03-29T03:25:55.125Z,484.7
2019-03-29T03:26:57.387Z,484.8
2019-03-29T03:27:59.879Z,485
2019-03-29T03:29:02.366Z,484.6
2019-03-29T03:30:04.590Z,484.5
2019-03-29T03:31:07.065Z,484.6
2019-03-29T03:32:09.315Z,484.9
2019-03-29T03:33:11.319Z,485.1
2019-03-29T03:34:13.824Z,485
2019-03-29T03:35:16.045Z,485.1
2019-03-29T03:36:18.539Z,485
2019-03-29T03:37:21.013Z,485.3
2019-03-29T03:38:23.368Z,485.1
2019-03-29T03:40:30.837Z,485.2
2019-03-29T03:41:33.116Z,485.2
2019-03-29T03:42:35.577Z,485.3
2019-03-29T03:43:37.804Z,485.6
2019-03-29T03:44:40.008Z,485.4
2019-03-29T03:45:42.546Z,485.5
2019-03-29T03:46:45.024Z,485.6
2019-03-29T03:47:47.496Z,485.4
2019-03-29T03:48:49.977Z,485.2
2019-03-29T03:49:52.443Z,485.6
2019-03-29T03:50:54.406Z,485.4
2019-03-29T03:51:56.636Z,485.4
2019-03-29T03:52:58.828Z,485.3
2019-03-29T03:54:01.336Z,485.7
2019-03-29T03:55:03.810Z,485.4
2019-03-29T03:56:06.283Z,485.4
2019-03-29T03:57:08.767Z,485.7
2019-03-29T03:58:11.240Z,485.6
2019-03-29T03:59:13.456Z,485.5
2019-03-29T04:00:15.923Z,485.4
2019-03-29T04:01:18.159Z,485.7
2019-03-29T04:02:20.642Z,485.6
2019-03-29T04:03:23.183Z,486.1
2019-03-29T04:04:25.665Z,486.2
2019-03-29T04:05:28.191Z,485.8
2019-03-29T04:06:30.680Z,485.9
2019-03-29T04:07:33.176Z,485.7
2019-03-29T04:08:35.650Z,485.4
2019-03-29T04:10:44.358Z,486.1
2019-03-29T04:11:46.922Z,485.8
2019-03-29T04:12:49.380Z,485.8
2019-03-29T04:13:51.871Z,485.8
2019-03-29T04:14:54.433Z,485.7
2019-03-29T04:15:56.904Z,485.8
2019-03-29T04:16:59.397Z,485.7
2019-03-29T04:18:01.870Z,485.7
2019-03-29T04:19:04.514Z,485.8
2019-03-29T04:20:06.708Z,485.7
2019-03-29T04:21:09.191Z,485.4
2019-03-29T04:22:11.390Z,485.5
2019-03-29T04:23:13.423Z,485.8
2019-03-29T04:24:15.903Z,485.8
2019-03-29T04:25:18.103Z,485.8
2019-03-29T04:26:20.028Z,485.7
2019-03-29T04:27:22.577Z,485.6
2019-03-29T04:28:25.048Z,485.9
2019-03-29T04:29:27.650Z,486.2
2019-03-29T04:30:29.994Z,486.2
2019-03-29T04:31:32.517Z,486.3
2019-03-29T04:32:35.003Z,486.5
2019-03-29T04:33:37.244Z,486.4
2019-03-29T04:34:39.454Z,486.4
2019-03-29T04:35:41.929Z,486.2
2019-03-29T04:36:44.404Z,486.6
2019-03-29T04:37:46.895Z,486.7
2019-03-29T04:38:49.367Z,486.8
2019-03-29T04:40:56.592Z,486.7
2019-03-29T04:41:59.096Z,487
2019-03-29T04:43:01.302Z,486.7
2019-03-29T04:44:03.795Z,486.9
2019-03-29T04:45:06.304Z,487
2019-03-29T04:46:09.242Z,487.1
2019-03-29T04:47:11.718Z,487.4
2019-03-29T04:48:14.198Z,487.2
2019-03-29T04:49:16.409Z,487.4
2019-03-29T04:50:19.006Z,486.8
2019-03-29T04:51:21.219Z,486.8
2019-03-29T04:52:23.679Z,487.2
2019-03-29T04:53:26.152Z,487.1
2019-03-29T04:54:28.362Z,487.1
2019-03-29T04:55:30.529Z,487.7
2019-03-29T04:56:32.713Z,487.6
2019-03-29T04:57:35.202Z,487.7
2019-03-29T04:58:37.414Z,487.2
2019-03-29T04:59:39.620Z,487.4
2019-03-29T05:00:41.553Z,487.5
2019-03-29T05:01:43.730Z,487.5
2019-03-29T05:02:45.929Z,487.5
2019-03-29T05:03:48.401Z,487.6
2019-03-29T05:04:50.612Z,487.4
2019-03-29T05:05:53.093Z,487.4
2019-03-29T05:06:55.571Z,487.5
2019-03-29T05:07:58.115Z,487.3
2019-03-29T05:09:00.331Z,487.2
2019-03-29T05:10:02.819Z,487.1
2019-03-29T05:11:05.301Z,487.3
2019-03-29T05:12:07.880Z,487.4
2019-03-29T05:13:10.355Z,487.5
2019-03-29T05:14:12.569Z,487.4
2019-03-29T05:15:15.056Z,487.6
2019-03-29T05:16:17.241Z,487.6
2019-03-29T05:17:19.194Z,487.3
2019-03-29T05:18:21.412Z,487.8
2019-03-29T05:19:23.699Z,487.9
2019-03-29T05:20:25.907Z,487.9
2019-03-29T05:21:28.114Z,487.6
2019-03-29T05:22:30.330Z,487.6
2019-03-29T05:23:32.801Z,487.5
2019-03-29T05:24:34.694Z,487.7
2019-03-29T05:25:37.159Z,487.7
2019-03-29T05:26:39.331Z,487.4
2019-03-29T05:27:41.803Z,487.4
2019-03-29T05:28:44.022Z,487.6
2019-03-29T05:29:46.491Z,487.5
2019-03-29T05:30:48.745Z,487.3
2019-03-29T05:31:53.545Z,487.3
2019-03-29T05:32:57.345Z,487.6
2019-03-29T05:33:59.319Z,487
2019-03-29T05:35:01.534Z,487.2
2019-03-29T05:36:04.018Z,487.1
2019-03-29T05:37:05.954Z,487.1
2019-03-29T05:38:08.189Z,487
2019-03-29T05:39:10.665Z,486.8
2019-03-29T05:40:13.128Z,486.6
2019-03-29T05:41:15.611Z,487.2
2019-03-29T05:42:17.823Z,486.7
2019-03-29T05:43:19.743Z,487
2019-03-29T05:44:21.954Z,487
2019-03-29T05:45:24.425Z,486.9
2019-03-29T05:46:26.914Z,486.6
2019-03-29T05:47:29.118Z,486.5
2019-03-29T05:48:31.616Z,487
2019-03-29T05:49:33.514Z,486.7
2019-03-29T05:51:40.769Z,486.7
2019-03-29T05:52:43.270Z,487
2019-03-29T05:53:45.463Z,487.3
2019-03-29T05:54:47.676Z,487.1
2019-03-29T05:55:50.509Z,487.2
2019-03-29T05:56:52.969Z,486.9
2019-03-29T05:57:55.443Z,487.1
2019-03-29T05:58:57.922Z,486.6
2019-03-29T06:00:00.342Z,486.8
2019-03-29T06:01:02.552Z,487
2019-03-29T06:02:05.030Z,486.8
2019-03-29T06:04:13.688Z,487
2019-03-29T06:05:15.866Z,487.2
2019-03-29T06:06:18.363Z,487.3
2019-03-29T06:07:20.555Z,487.3
2019-03-29T06:08:22.494Z,487.6
2019-03-29T06:09:24.964Z,487.9
2019-03-29T06:10:27.170Z,487.9
2019-03-29T06:11:29.643Z,488.3
2019-03-29T06:12:31.693Z,487.8
2019-03-29T06:13:34.214Z,487.6
2019-03-29T06:14:36.714Z,487.5
2019-03-29T06:15:39.197Z,487.5
2019-03-29T06:16:41.386Z,487.6
2019-03-29T06:18:48.604Z,487.5
2019-03-29T06:19:51.076Z,487.4
2019-03-29T06:20:53.003Z,487.5
2019-03-29T06:21:55.491Z,487.4
2019-03-29T06:22:57.979Z,487
2019-03-29T06:24:00.455Z,487
2019-03-29T06:25:02.929Z,486.9
2019-03-29T06:26:05.431Z,486.9
2019-03-29T06:27:07.643Z,486.1
2019-03-29T06:28:09.846Z,486.1
2019-03-29T06:29:12.336Z,486.6
2019-03-29T06:30:14.532Z,486.5
2019-03-29T06:31:17.005Z,485.9
2019-03-29T06:32:18.922Z,486.2
2019-03-29T06:33:21.130Z,485.4
2019-03-29T06:34:23.593Z,485.5
2019-03-29T06:35:25.765Z,486
2019-03-29T06:36:28.245Z,486.1
2019-03-29T06:37:30.723Z,486
2019-03-29T06:38:33.205Z,485.7
2019-03-29T06:39:35.671Z,486.2
2019-03-29T06:40:37.874Z,486.2
2019-03-29T06:41:39.797Z,485.8
2019-03-29T06:42:41.987Z,486.1
2019-03-29T06:43:44.458Z,485.3
2019-03-29T06:44:46.945Z,486
2019-03-29T06:45:50.388Z,486
2019-03-29T06:46:52.585Z,485.8
2019-03-29T06:47:55.099Z,485.4
2019-03-29T06:48:57.309Z,485.5
2019-03-29T06:49:59.779Z,485.7
2019-03-29T06:51:02.249Z,486
2019-03-29T06:52:04.487Z,486.1
2019-03-29T06:53:06.680Z,485.8
2019-03-29T06:54:08.893Z,485.7
2019-03-29T06:55:11.363Z,485.7
2019-03-29T06:56:13.553Z,486.3
2019-03-29T06:57:16.074Z,486.1
2019-03-29T06:58:18.295Z,485.7
2019-03-29T06:59:19.945Z,485.6
2019-03-29T07:00:22.413Z,485.6
2019-03-29T07:01:24.885Z,486.4
2019-03-29T07:02:27.349Z,485.7
2019-03-29T07:03:29.823Z,485.9
2019-03-29T07:04:32.007Z,486.4
2019-03-29T07:05:34.481Z,486.3
2019-03-29T07:06:36.963Z,486.7
2019-03-29T07:07:39.151Z,486.6
2019-03-29T07:08:41.625Z,486.9
2019-03-29T07:09:43.825Z,487.5
2019-03-29T07:10:46.306Z,486.5
2019-03-29T07:11:48.793Z,486.7
2019-03-29T07:12:51.275Z,486.4
2019-03-29T07:14:58.486Z,486.8
2019-03-29T07:16:00.957Z,486.8
2019-03-29T07:17:03.430Z,486.8
2019-03-29T07:18:05.921Z,486.6
2019-03-29T07:19:08.117Z,486.9
2019-03-29T07:20:10.604Z,487.1
2019-03-29T07:22:17.795Z,486.8
2019-03-29T07:23:20.016Z,486.5
2019-03-29T07:24:22.518Z,486.9
2019-03-29T07:25:24.974Z,486.2
2019-03-29T07:26:27.446Z,487.2
2019-03-29T07:28:36.114Z,487.2
2019-03-29T07:29:38.303Z,486.8
2019-03-29T07:30:40.779Z,486.1
2019-03-29T07:31:43.273Z,486.8
2019-03-29T07:32:45.445Z,486.9
2019-03-29T07:33:47.385Z,487.5
2019-03-29T07:34:51.087Z,487.5
2019-03-29T07:35:53.279Z,487.7
2019-03-29T07:36:55.459Z,487.8
2019-03-29T07:37:57.925Z,487.9
2019-03-29T07:39:00.415Z,487.8
2019-03-29T07:40:02.586Z,488.3
2019-03-29T07:41:05.056Z,488.7
2019-03-29T07:42:07.535Z,488.8
2019-03-29T07:43:10.126Z,488.5
2019-03-29T07:44:12.350Z,488.4
2019-03-29T07:45:14.825Z,488.1
2019-03-29T07:46:17.285Z,488.1
2019-03-29T07:47:19.755Z,488.2
2019-03-29T07:48:21.957Z,487.9
2019-03-29T07:49:24.423Z,487.9
2019-03-29T07:50:26.363Z,488.3
2019-03-29T07:51:28.852Z,488.4
2019-03-29T07:52:31.318Z,488.1
2019-03-29T07:53:33.795Z,488.3
2019-03-29T07:54:35.954Z,488
2019-03-29T07:55:39.511Z,488.4
2019-03-29T07:56:41.706Z,488.6
2019-03-29T07:57:44.183Z,488.8
2019-03-29T07:58:46.656Z,488.3
2019-03-29T07:59:49.855Z,488.4
2019-03-29T08:00:53.013Z,488.7
2019-03-29T08:01:55.205Z,488.4
2019-03-29T08:02:57.793Z,488.1
2019-03-29T08:04:00.287Z,488.5
2019-03-29T08:05:02.507Z,488.4
2019-03-29T08:06:04.975Z,488.4
2019-03-29T08:07:08.285Z,488.7
2019-03-29T08:12:30.271Z,489.1
2019-03-29T08:13:32.747Z,489.4
2019-03-29T08:14:34.929Z,489.7
2019-03-29T08:15:37.407Z,489.6
2019-03-29T08:16:39.609Z,489
2019-03-29T08:17:42.087Z,489.1
2019-03-29T08:18:44.291Z,489.7
2019-03-29T08:19:46.483Z,489.8
2019-03-29T08:20:48.642Z,489.4
2019-03-29T08:21:50.871Z,489.2
2019-03-29T08:22:53.700Z,489.2
2019-03-29T08:23:56.174Z,489.6
2019-03-29T08:26:03.645Z,489.1
2019-03-29T08:27:06.144Z,488.9
2019-03-29T08:28:08.623Z,489.2
2019-03-29T08:29:11.013Z,489.2
2019-03-29T08:30:13.219Z,488.9
2019-03-29T08:31:15.438Z,489.5
2019-03-29T08:32:17.694Z,489.4
2019-03-29T08:33:19.590Z,489.5
2019-03-29T08:34:22.089Z,489
2019-03-29T08:35:24.571Z,489
2019-03-29T08:36:26.765Z,489
2019-03-29T08:37:29.243Z,489.1
2019-03-29T08:38:31.434Z,489
2019-03-29T08:39:33.355Z,489.4
2019-03-29T08:40:35.839Z,489.2
2019-03-29T08:41:38.304Z,489
2019-03-29T08:42:40.787Z,488.9
2019-03-29T08:43:43.257Z,488.8
2019-03-29T08:44:45.475Z,488.5
2019-03-29T08:45:47.649Z,488.6
2019-03-29T08:46:50.124Z,488.3
2019-03-29T08:47:52.594Z,488.4
2019-03-29T08:48:55.070Z,488.6
2019-03-29T08:49:57.285Z,488.8
2019-03-29T08:50:59.777Z,489
2019-03-29T08:52:02.247Z,488.8
2019-03-29T08:53:04.813Z,488.7
2019-03-29T08:54:07.022Z,488.9
2019-03-29T08:55:09.516Z,488.6
2019-03-29T08:56:11.991Z,489.1
2019-03-29T08:57:14.460Z,488.9
2019-03-29T08:58:16.927Z,488.4
2019-03-29T08:59:19.836Z,489.4
2019-03-29T09:00:22.296Z,488.9
2019-03-29T09:01:24.777Z,488.7
2019-03-29T09:02:27.441Z,489.4
2019-03-29T09:03:29.922Z,488.8
2019-03-29T09:04:32.391Z,489.5
2019-03-29T09:05:34.589Z,489.7
2019-03-29T09:06:36.605Z,489.3
2019-03-29T09:08:44.083Z,490
2019-03-29T09:09:48.181Z,490.1
2019-03-29T09:10:50.661Z,490.3
2019-03-29T09:11:52.859Z,490.1
2019-03-29T09:12:55.358Z,489.9
2019-03-29T09:13:57.842Z,490.3
2019-03-29T09:16:06.485Z,490.8
2019-03-29T09:17:09.012Z,490.3
2019-03-29T09:18:11.196Z,490.5
2019-03-29T09:19:13.667Z,490.2
2019-03-29T09:20:15.908Z,490.1
2019-03-29T09:21:18.098Z,490.4
2019-03-29T09:22:20.575Z,490
2019-03-29T09:23:22.777Z,490.5
2019-03-29T09:24:25.242Z,490.7
2019-03-29T09:25:27.457Z,490.5
2019-03-29T09:26:29.660Z,490.9
2019-03-29T09:27:34.052Z,490.9
2019-03-29T09:28:36.526Z,490.5
2019-03-29T09:29:38.785Z,491.2
2019-03-29T09:30:40.715Z,491.1
2019-03-29T09:31:43.206Z,490.9
2019-03-29T09:32:45.129Z,490.4
2019-03-29T09:33:47.598Z,490.2
2019-03-29T09:34:50.077Z,491
2019-03-29T09:35:52.540Z,490.8
2019-03-29T09:36:54.733Z,490.8
2019-03-29T09:37:58.678Z,490.6
2019-03-29T09:39:01.159Z,490.7
2019-03-29T09:40:03.369Z,491
2019-03-29T09:41:05.861Z,490.5
2019-03-29T09:43:13.335Z,490.8
2019-03-29T09:44:15.555Z,491.5
2019-03-29T09:45:18.034Z,491.4
2019-03-29T09:46:20.512Z,490.7
2019-03-29T09:47:22.984Z,491.4
2019-03-29T09:48:25.445Z,491.1
2019-03-29T09:49:27.662Z,490.9
2019-03-29T09:50:30.133Z,491.1
2019-03-29T09:51:35.704Z,491.2
2019-03-29T09:52:39.260Z,491.6
2019-03-29T09:53:43.263Z,491.5
2019-03-29T09:54:45.836Z,491.4
2019-03-29T09:55:48.313Z,491.8
2019-03-29T09:56:50.569Z,491.7
2019-03-29T09:57:53.053Z,492
2019-03-29T09:58:55.230Z,491.8
2019-03-29T09:59:57.718Z,491.3
2019-03-29T10:01:00.187Z,492.2
2019-03-29T10:02:02.949Z,491.9
2019-03-29T10:03:05.425Z,491.3
2019-03-29T10:04:07.625Z,491
2019-03-29T10:05:09.836Z,491.4
2019-03-29T10:07:18.767Z,491.8
2019-03-29T10:08:21.333Z,492.2
2019-03-29T10:09:23.533Z,492
2019-03-29T10:10:26.001Z,492.9
2019-03-29T10:11:28.465Z,492.6
2019-03-29T10:13:35.653Z,493.2
2019-03-29T10:14:38.125Z,492.8
2019-03-29T10:15:40.335Z,492.6
2019-03-29T10:16:42.815Z,492.9
2019-03-29T10:17:45.293Z,492.7
2019-03-29T10:18:47.768Z,493
2019-03-29T10:19:51.914Z,493.1
2019-03-29T10:20:54.132Z,493.1
2019-03-29T10:21:56.334Z,493.1
2019-03-29T10:22:58.603Z,493.3
2019-03-29T10:24:01.072Z,493
2019-03-29T10:26:10.149Z,493.4
2019-03-29T10:27:12.359Z,493.7
2019-03-29T10:28:14.300Z,493.7
2019-03-29T10:29:16.774Z,493.6
2019-03-29T10:30:19.242Z,493.8
2019-03-29T10:32:26.705Z,494
2019-03-29T10:33:29.192Z,494.3
2019-03-29T10:34:31.408Z,494.3
2019-03-29T10:35:33.619Z,494.2
2019-03-29T10:36:36.095Z,494.2
2019-03-29T10:37:38.580Z,493.8
2019-03-29T10:38:41.059Z,494
2019-03-29T10:39:43.259Z,493.6
2019-03-29T10:40:45.726Z,494.1
2019-03-29T10:41:48.193Z,494.2
2019-03-29T10:43:55.146Z,494
2019-03-29T10:44:57.632Z,494.2
2019-03-29T10:45:59.827Z,495
2019-03-29T10:47:02.307Z,495
2019-03-29T10:48:04.522Z,495.5
2019-03-29T10:49:07.168Z,495.9
2019-03-29T10:50:09.247Z,495.9
2019-03-29T10:51:11.739Z,495.5
2019-03-29T10:52:14.206Z,495.6
2019-03-29T10:53:16.404Z,495.2
2019-03-29T10:54:18.867Z,496.1
2019-03-29T10:55:21.353Z,495.9
2019-03-29T10:57:28.819Z,495.6
2019-03-29T10:58:31.043Z,495.9
2019-03-29T10:59:33.525Z,496
2019-03-29T11:00:35.718Z,494.9
2019-03-29T11:01:37.911Z,495.1
2019-03-29T11:02:40.388Z,495.4
2019-03-29T11:03:42.865Z,495.5
2019-03-29T11:04:44.806Z,495.3
2019-03-29T11:05:47.018Z,495.3
2019-03-29T11:06:49.201Z,495.5
2019-03-29T11:07:51.698Z,495.5
2019-03-29T11:08:54.174Z,495.9
2019-03-29T11:09:56.644Z,495.5
2019-03-29T11:10:58.563Z,496.1
2019-03-29T11:12:01.039Z,496.3
2019-03-29T11:14:08.219Z,496.6
2019-03-29T11:15:10.403Z,495.6
2019-03-29T11:16:12.895Z,496.4
2019-03-29T11:17:15.437Z,496.1
2019-03-29T11:18:17.922Z,496.6
2019-03-29T11:19:20.390Z,496.5
2019-03-29T11:20:22.886Z,497.2
2019-03-29T11:21:25.368Z,497.3
2019-03-29T11:22:27.286Z,497.8
2019-03-29T11:23:29.758Z,496.6
2019-03-29T11:24:32.230Z,496.1
2019-03-29T11:25:34.426Z,496.1
2019-03-29T11:26:36.925Z,496.1
2019-03-29T11:27:39.406Z,496.6
2019-03-29T11:28:41.628Z,497.3
2019-03-29T11:29:44.105Z,497.8
2019-03-29T11:30:46.580Z,497.3
2019-03-29T11:31:48.772Z,497.3
2019-03-29T11:32:50.951Z,497.4
2019-03-29T11:33:53.423Z,497.2
2019-03-29T11:34:55.926Z,497.4
2019-03-29T11:35:58.405Z,497.1
2019-03-29T11:37:00.317Z,497.2
2019-03-29T11:38:02.558Z,498
2019-03-29T11:39:05.054Z,497.9
2019-03-29T11:40:07.247Z,497.4
2019-03-29T11:41:09.189Z,497.7
2019-03-29T11:42:11.687Z,497.7
2019-03-29T11:44:19.141Z,497.6
2019-03-29T11:45:21.627Z,498
2019-03-29T11:46:24.114Z,498.1
2019-03-29T11:47:26.586Z,498
2019-03-29T11:49:33.776Z,497.4
2019-03-29T11:50:35.988Z,497.8
2019-03-29T11:51:37.889Z,497.9
2019-03-29T11:52:39.520Z,497.6
2019-03-29T11:53:56.657Z,498.1
2019-03-29T11:54:59.136Z,498.7
2019-03-29T11:56:01.609Z,498.7
2019-03-29T11:57:03.813Z,498.7
2019-03-29T11:58:06.283Z,498.9
2019-03-29T11:59:08.516Z,499.3
2019-03-29T12:00:10.989Z,498.7
2019-03-29T12:01:13.457Z,498.3
2019-03-29T12:02:30.113Z,498.4
2019-03-29T12:03:22.885Z,498.6
2019-03-29T12:04:25.453Z,498.5
2019-03-29T12:05:27.628Z,498.4
2019-03-29T12:06:29.835Z,498.5
2019-03-29T12:07:31.776Z,499.1
2019-03-29T12:08:34.255Z,499.1
2019-03-29T12:09:36.457Z,499.5
2019-03-29T12:10:38.663Z,499.8
2019-03-29T12:11:40.617Z,499.3
2019-03-29T12:12:42.793Z,499.2
2019-03-29T12:13:45.267Z,499.6
2019-03-29T12:14:47.756Z,500.1
2019-03-29T12:15:50.220Z,499.7
2019-03-29T12:16:52.695Z,499.5
2019-03-29T12:17:55.169Z,499.8
2019-03-29T12:18:57.355Z,499.9
2019-03-29T12:19:59.834Z,500.1
2019-03-29T12:21:02.318Z,500.1
2019-03-29T12:22:04.796Z,500
2019-03-29T12:23:07.275Z,500.4
2019-03-29T12:24:09.768Z,501.6
2019-03-29T12:25:12.277Z,500.4
2019-03-29T12:26:14.758Z,500.5
2019-03-29T12:27:17.229Z,500.6
2019-03-29T12:28:19.453Z,500.3
2019-03-29T12:29:21.661Z,500.5
2019-03-29T12:31:29.120Z,500.6
2019-03-29T12:32:31.351Z,500.6
2019-03-29T12:33:33.328Z,500.9
2019-03-29T12:34:35.536Z,500.7
2019-03-29T12:35:38.102Z,500.9
2019-03-29T12:36:40.322Z,501.3
2019-03-29T12:37:42.528Z,501.3
2019-03-29T12:38:44.751Z,501.4
2019-03-29T12:39:47.265Z,501.7
2019-03-29T12:40:49.755Z,501.4
2019-03-29T12:41:52.219Z,501
2019-03-29T12:42:54.540Z,500.8
2019-03-29T12:43:58.189Z,500.9
2019-03-29T12:45:00.574Z,501.3
2019-03-29T12:46:02.796Z,501.3
2019-03-29T12:47:05.276Z,501.4
2019-03-29T12:48:07.758Z,501.2
2019-03-29T12:49:10.251Z,501.1
2019-03-29T12:50:12.430Z,501.6
2019-03-29T12:51:14.904Z,501.5
2019-03-29T12:52:17.380Z,501.6
2019-03-29T12:53:19.869Z,501.7
2019-03-29T12:54:22.485Z,501.6
2019-03-29T12:55:25.134Z,501.6
2019-03-29T12:56:27.615Z,502
2019-03-29T12:57:29.264Z,501.8
2019-03-29T12:58:31.743Z,501.4
2019-03-29T12:59:35.140Z,501.9
2019-03-29T13:00:37.626Z,502.3
2019-03-29T13:01:42.167Z,502.3
2019-03-29T13:02:44.655Z,502.2
2019-03-29T13:03:46.936Z,502
2019-03-29T13:04:49.900Z,501.8
2019-03-29T13:05:52.416Z,502.3
2019-03-29T13:06:54.614Z,501.8
2019-03-29T13:07:57.083Z,501.5
2019-03-29T13:08:59.005Z,501.5
2019-03-29T13:10:01.497Z,501.6
2019-03-29T13:11:03.965Z,502.2
2019-03-29T13:12:06.453Z,502.9
2019-03-29T13:13:08.654Z,503
2019-03-29T13:14:12.831Z,503.3
2019-03-29T13:15:15.305Z,502.8
2019-03-29T13:16:17.860Z,502.6
2019-03-29T13:17:20.364Z,502.9
2019-03-29T13:18:22.584Z,503
2019-03-29T13:19:25.070Z,503.5
2019-03-29T13:20:27.235Z,503.9
2019-03-29T13:21:29.711Z,503.6
2019-03-29T13:23:38.232Z,503.8
2019-03-29T13:24:40.717Z,504.2
2019-03-29T13:25:43.202Z,503.7
2019-03-29T13:26:45.687Z,503.6
2019-03-29T13:27:47.886Z,503.6
2019-03-29T13:28:49.833Z,503.9
2019-03-29T13:29:52.007Z,504.4
2019-03-29T13:30:54.492Z,504.4
2019-03-29T13:31:56.748Z,504.9
2019-03-29T13:32:59.254Z,504.8
2019-03-29T13:34:01.210Z,505
2019-03-29T13:35:03.700Z,504.9
2019-03-29T13:36:05.908Z,504.9
2019-03-29T13:37:08.387Z,504.7
2019-03-29T13:38:10.607Z,504.8
2019-03-29T13:39:13.115Z,504.9
2019-03-29T13:40:15.592Z,505.5
2019-03-29T13:41:18.076Z,505.9
2019-03-29T13:42:20.366Z,505.6
2019-03-29T13:43:22.845Z,505.5
2019-03-29T13:45:30.305Z,506.2
2019-03-29T13:46:32.774Z,506.2
2019-03-29T13:47:35.258Z,506.2
2019-03-29T13:48:37.735Z,506.5
2019-03-29T13:49:40.234Z,506.8
2019-03-29T13:50:42.712Z,507
2019-03-29T13:51:45.198Z,506.8
2019-03-29T13:52:47.400Z,506.8
2019-03-29T13:53:49.930Z,506.6
2019-03-29T13:54:52.402Z,506.5
2019-03-29T13:55:54.913Z,506.2
2019-03-29T13:56:57.408Z,506.7
2019-03-29T13:57:59.882Z,506.9
2019-03-29T13:59:02.346Z,506.9
2019-03-29T14:00:04.826Z,507
2019-03-29T14:01:07.307Z,507.4
2019-03-29T14:02:09.509Z,507.3
2019-03-29T14:03:12.114Z,507.5
2019-03-29T14:04:14.642Z,507.9
2019-03-29T14:05:17.364Z,507.6
2019-03-29T14:06:20.012Z,507.6
2019-03-29T14:07:23.422Z,507.6
2019-03-29T14:08:25.591Z,507.7